Caleb J. Eymard — WDC8180 — position and weather

sailwx.info

Track history (hours):
 
Tides and Currents Weather Stations Pressure Air Temp Water Temp Dewpoint Dewpoint Depression Visibility Wind Speed Wind Dir Waves Ship Positions

Caleb J. Eymard

Owner: Eymard Brothers Towing Company, Inc., Marrero, LA. More information available from US FCC via Universal Licensing System and Coast Guard Vessel Documentation Center.

Last reported at 2018-May-27 09:19 UTC. Time now 2018-May-27 11:36 UTC.
Position N 29°43' W 095°14'.

; draft 3 m.

Type: Tug. MMSI: 367082880.

Date/timePositionNaut miles runAvg speedWind from/ knotsBaromVisibWave heightAir tempDewpointWater temp
2018-May-27 09:19N 29°43' W 095°14'0 0.0
2018-May-27 08:43N 29°43' W 095°14'0 0.0
2018-May-27 07:48N 29°43' W 095°14'0 0.0
2018-May-27 05:18N 29°43' W 095°14'0 0.0
2018-May-27 04:39N 29°43' W 095°14'0 0.0
2018-May-27 04:20N 29°43' W 095°14'0 0.0
2018-May-27 04:00N 29°43' W 095°14'0 0.0
2018-May-27 03:30N 29°43' W 095°14'0 0.0
2018-May-27 03:00N 29°43' W 095°14'2 3.6
2018-May-27 02:28N 29°44' W 095°12'3 5.6
2018-May-27 02:00N 29°44' W 095°09'3 6.0
2018-May-27 01:28N 29°45' W 095°06'3 4.5
2018-May-27 00:54N 29°44' W 095°09'5 6.2
2018-May-27 00:05N 29°43' W 095°14'0 0.4
2018-May-26 23:59N 29°43' W 095°14'2 3.1
2018-May-26 23:20N 29°44' W 095°12'2 5.7
2018-May-26 23:00N 29°45' W 095°10'3 5.5
2018-May-26 22:29N 29°44' W 095°07'3 4.7
2018-May-26 21:55N 29°45' W 095°04'3 5.0
2018-May-26 21:14N 29°43' W 095°01'1 3.3
2018-May-26 21:00N 29°42' W 095°01'2 4.7
2018-May-26 20:30N 29°41' W 094°58'2 4.6
2018-May-26 19:59N 29°41' W 094°56'1 2.3
2018-May-26 19:30N 29°42' W 094°55'0 0.8
2018-May-26 18:59N 29°42' W 094°55'1 0.4
2018-May-26 16:40N 29°43' W 094°56'0 0.1
2018-May-26 16:30N 29°43' W 094°56'0 0.3
2018-May-26 16:00N 29°43' W 094°56'0 0.2
2018-May-26 15:27N 29°43' W 094°56'0 0.1
2018-May-26 14:58N 29°43' W 094°56'0 0.0
2018-May-26 14:30N 29°43' W 094°56'0 0.0
2018-May-26 01:35N 29°43' W 094°56'0 0.0
2018-May-26 01:13N 29°43' W 094°56'0 0.3
2018-May-26 00:57N 29°43' W 094°56'1 1.6
2018-May-26 00:30N 29°43' W 094°57'0 0.1
2018-May-25 21:51N 29°43' W 094°56'0 1.3
2018-May-25 21:29N 29°43' W 094°56'1 1.4
2018-May-25 20:53N 29°42' W 094°55'1 2.5
2018-May-25 20:30N 29°41' W 094°55'1 2.8
2018-May-25 20:00N 29°41' W 094°57'2 3.9
2018-May-25 19:30N 29°41' W 094°59'1 1.0
2018-May-25 19:00N 29°41' W 094°60'0 0.0
2018-May-25 18:30N 29°41' W 094°60'0 0.0
2018-May-25 18:00N 29°41' W 094°60'0 0.0
2018-May-25 17:30N 29°41' W 094°60'0 0.0
2018-May-25 17:00N 29°41' W 094°60'0 0.0
2018-May-25 16:30N 29°41' W 094°60'0 0.0
2018-May-25 16:00N 29°41' W 094°60'0 0.0
2018-May-25 15:30N 29°41' W 094°60'0 0.0
2018-May-25 15:00N 29°41' W 094°60'0 0.0
2018-May-25 14:30N 29°41' W 094°60'0 0.0
2018-May-25 14:00N 29°41' W 094°60'0 0.0
2018-May-25 13:28N 29°41' W 094°60'0 0.0
2018-May-25 12:59N 29°41' W 094°60'0 0.0
2018-May-25 12:30N 29°41' W 094°60'0 0.0
2018-May-25 12:00N 29°41' W 094°60'0 0.1
2018-May-25 11:30N 29°41' W 094°60'0 0.0
2018-May-25 11:00N 29°41' W 094°60'0 0.0
2018-May-25 10:30N 29°41' W 094°60'0 0.0
2018-May-25 10:00N 29°41' W 094°60'0 0.0
2018-May-25 09:30N 29°41' W 094°60'0 0.0
2018-May-25 09:00N 29°41' W 094°60'0 0.0
2018-May-25 08:29N 29°41' W 094°60'0 0.0
2018-May-25 08:00N 29°41' W 094°60'0 0.0
2018-May-25 07:30N 29°41' W 094°60'0 0.0
2018-May-25 07:00N 29°41' W 094°60'0 0.0
2018-May-25 06:30N 29°41' W 094°60'0 0.0
2018-May-25 06:00N 29°41' W 094°60'0 0.0
2018-May-25 05:30N 29°41' W 094°60'0 0.0
2018-May-25 05:00N 29°41' W 094°60'0 0.0
2018-May-25 04:30N 29°41' W 094°60'0 0.0
2018-May-25 04:00N 29°41' W 094°60'0 0.2
2018-May-25 03:30N 29°41' W 094°60'2 3.2
2018-May-25 03:00N 29°41' W 094°58'2 3.5
2018-May-25 02:28N 29°40' W 094°56'1 0.7
2018-May-25 00:26N 29°42' W 094°55'0 0.0
2018-May-24 21:33N 29°42' W 094°55'0 0.9
2018-May-24 21:28N 29°42' W 094°55'1 1.2
2018-May-24 20:59N 29°42' W 094°56'1 1.4
2018-May-24 20:30N 29°43' W 094°56'1 1.0
2018-May-24 19:52N 29°43' W 094°57'1 1.8
2018-May-24 19:29N 29°43' W 094°56'0 0.1
2018-May-24 19:00N 29°43' W 094°56'0 0.0
2018-May-24 18:24N 29°43' W 094°56'0 0.0
2018-May-24 18:00N 29°43' W 094°56'0 0.0
2018-May-24 17:26N 29°43' W 094°56'0 0.0
2018-May-24 16:58N 29°43' W 094°56'0 0.0
2018-May-24 16:30N 29°43' W 094°56'0 0.0
2018-May-24 15:59N 29°43' W 094°56'0 0.0
2018-May-24 15:29N 29°43' W 094°56'0 0.4
2018-May-24 15:00N 29°43' W 094°56'0 0.3
2018-May-24 14:30N 29°43' W 094°56'0 0.3
2018-May-24 13:57N 29°43' W 094°56'0 0.0
2018-May-24 08:57N 29°43' W 094°56'0 0.0
2018-May-24 08:27N 29°43' W 094°56'0 0.0
2018-May-24 07:44N 29°43' W 094°56'0 0.0
2018-May-24 07:17N 29°43' W 094°56'0 0.0
2018-May-24 07:00N 29°43' W 094°56'0 0.0
2018-May-24 06:30N 29°43' W 094°56'0 0.0
2018-May-24 05:57N 29°43' W 094°56'0 0.0
2018-May-24 05:26N 29°43' W 094°56'0 0.0
2018-May-24 04:55N 29°43' W 094°56'0 0.0
2018-May-24 04:11N 29°43' W 094°56'0 0.0
2018-May-24 03:59N 29°43' W 094°56'0 0.0
2018-May-24 03:29N 29°43' W 094°56'0 0.0
2018-May-24 02:50N 29°43' W 094°56'0 0.0
2018-May-24 02:26N 29°43' W 094°56'0 0.0
2018-May-24 02:00N 29°43' W 094°56'0 0.0
2018-May-24 01:30N 29°43' W 094°56'0 0.0
2018-May-24 00:59N 29°43' W 094°56'0 0.0
2018-May-24 00:30N 29°43' W 094°56'0 0.0
2018-May-23 23:52N 29°43' W 094°56'0 0.0
2018-May-23 23:28N 29°43' W 094°56'0 0.0
2018-May-23 22:58N 29°43' W 094°56'0 0.0
2018-May-23 22:30N 29°43' W 094°56'0 0.0
2018-May-23 21:50N 29°43' W 094°56'0 0.0
2018-May-23 21:26N 29°43' W 094°56'0 0.0
2018-May-23 21:00N 29°43' W 094°56'0 0.0
2018-May-23 20:29N 29°43' W 094°56'0 0.0
2018-May-23 20:00N 29°43' W 094°56'0 0.0
2018-May-23 19:30N 29°43' W 094°56'0 0.0
2018-May-23 18:59N 29°43' W 094°56'0 0.0
2018-May-23 18:30N 29°43' W 094°56'0 0.0
2018-May-23 18:00N 29°43' W 094°56'0 0.0
2018-May-23 17:30N 29°43' W 094°56'0 0.0
2018-May-23 16:57N 29°43' W 094°56'0 0.0
2018-May-23 16:28N 29°43' W 094°56'0 0.1
2018-May-23 15:47N 29°43' W 094°56'0 0.4
2018-May-23 15:30N 29°43' W 094°56'0 0.0
2018-May-23 14:59N 29°43' W 094°56'0 0.0
2018-May-23 14:30N 29°43' W 094°56'0 0.1
2018-May-23 13:59N 29°43' W 094°56'0 0.0
2018-May-23 13:30N 29°43' W 094°56'0 0.0
2018-May-23 13:00N 29°43' W 094°56'0 0.0
2018-May-23 12:30N 29°43' W 094°56'0 0.0
2018-May-23 12:00N 29°43' W 094°56'0 0.0
2018-May-23 11:30N 29°43' W 094°56'0 0.0
2018-May-23 10:56N 29°43' W 094°56'0 0.0
2018-May-23 10:30N 29°43' W 094°56'0 0.0
2018-May-23 10:00N 29°43' W 094°56'0 0.0
2018-May-23 09:30N 29°43' W 094°56'0 0.0
2018-May-23 09:00N 29°43' W 094°56'0 0.0
2018-May-23 08:28N 29°43' W 094°56'0 0.0
2018-May-23 08:00N 29°43' W 094°56'0 0.0
2018-May-23 07:30N 29°43' W 094°56'0 0.0
2018-May-23 06:56N 29°43' W 094°56'0 0.0
2018-May-23 06:28N 29°43' W 094°56'0 0.0
2018-May-23 06:00N 29°43' W 094°56'0 0.0
2018-May-23 05:28N 29°43' W 094°56'0 0.0
2018-May-23 04:57N 29°43' W 094°56'0 0.0
2018-May-23 04:19N 29°43' W 094°56'1 0.8
2018-May-23 03:27N 29°43' W 094°57'1 1.2
2018-May-23 02:54N 29°43' W 094°56'0 0.0
2018-May-23 02:29N 29°43' W 094°56'0 0.0
2018-May-23 01:57N 29°43' W 094°56'1 0.3
2018-May-22 23:27N 29°43' W 094°57'1 1.6
2018-May-22 22:58N 29°43' W 094°56'1 1.7
2018-May-22 22:27N 29°42' W 094°55'1 2.5
2018-May-22 22:00N 29°41' W 094°56'1 2.8
2018-May-22 21:30N 29°41' W 094°57'1 3.0
2018-May-22 21:00N 29°41' W 094°59'3 5.4
2018-May-22 20:30N 29°38' W 094°58'2 3.5
2018-May-22 20:00N 29°37' W 094°59'1 2.1
2018-May-22 19:30N 29°37' W 094°60'0 0.1
2018-May-22 19:00N 29°37' W 094°60'0 0.0
2018-May-22 18:30N 29°37' W 094°60'0 0.0
2018-May-22 18:00N 29°37' W 094°60'0 0.0
2018-May-22 17:30N 29°37' W 094°60'0 0.0
2018-May-22 17:00N 29°37' W 094°60'0 0.0
2018-May-22 16:30N 29°37' W 094°60'0 0.0
2018-May-22 16:00N 29°37' W 094°60'0 0.0
2018-May-22 15:30N 29°37' W 094°60'0 0.0
2018-May-22 15:00N 29°37' W 094°60'0 0.0
2018-May-22 14:30N 29°37' W 094°60'0 0.0
2018-May-22 14:00N 29°37' W 094°60'0 0.0
2018-May-22 13:30N 29°37' W 094°60'0 0.0
2018-May-22 13:00N 29°37' W 094°60'0 0.0
2018-May-22 12:30N 29°37' W 094°60'0 0.0
2018-May-22 12:00N 29°37' W 094°60'0 0.0
2018-May-22 11:30N 29°37' W 094°60'0 0.0
2018-May-22 11:00N 29°37' W 094°60'0 0.0
2018-May-22 10:30N 29°37' W 094°60'0 0.0
2018-May-22 10:00N 29°37' W 094°60'0 0.0
2018-May-22 09:30N 29°37' W 094°60'0 0.0
2018-May-22 09:00N 29°37' W 094°60'0 0.0
2018-May-22 08:30N 29°37' W 094°60'0 0.0
2018-May-22 08:00N 29°37' W 094°60'0 0.0
2018-May-22 07:30N 29°37' W 094°60'0 0.0
2018-May-22 07:00N 29°37' W 094°60'0 0.0
2018-May-22 06:30N 29°37' W 094°60'0 0.0
2018-May-22 06:00N 29°37' W 094°60'0 0.0
2018-May-22 05:30N 29°37' W 094°60'0 0.0
2018-May-22 05:00N 29°37' W 094°60'0 0.0
2018-May-22 04:30N 29°37' W 094°60'0 0.0
2018-May-22 04:00N 29°37' W 094°60'0 0.0
2018-May-22 03:30N 29°37' W 094°60'0 0.0
2018-May-22 03:00N 29°37' W 094°60'0 0.0
2018-May-22 02:30N 29°37' W 094°60'0 0.0
2018-May-22 02:00N 29°37' W 094°60'0 0.0
2018-May-22 01:30N 29°37' W 094°60'0 0.0
2018-May-22 01:00N 29°37' W 094°60'1 2.2
2018-May-22 00:30N 29°37' W 094°59'2 3.6
2018-May-22 00:00N 29°39' W 094°58'3 5.3
2018-May-21 23:30N 29°41' W 094°59'2 4.1
2018-May-21 23:00N 29°41' W 094°56'2 3.1
2018-May-21 22:29N 29°42' W 094°55'1 1.2
2018-May-21 21:57N 29°42' W 094°56'1 1.7
2018-May-21 21:30N 29°43' W 094°56'1 0.2
2018-May-21 17:25N 29°43' W 094°57'1 1.0
2018-May-21 16:41N 29°43' W 094°56'0 0.0
2018-May-21 16:26N 29°43' W 094°56'0 0.1
2018-May-21 16:00N 29°43' W 094°56'0 0.0
2018-May-21 15:30N 29°43' W 094°56'0 0.0
2018-May-21 14:58N 29°43' W 094°56'0 0.0
2018-May-21 14:30N 29°43' W 094°56'1 1.6
2018-May-21 13:54N 29°42' W 094°55'0 0.8
2018-May-21 13:29N 29°42' W 094°55'1 2.7
2018-May-21 13:00N 29°43' W 094°56'0 0.0
2018-May-21 12:26N 29°43' W 094°56'0 0.0
2018-May-21 12:00N 29°43' W 094°56'0 0.0
2018-May-21 11:30N 29°43' W 094°56'0 0.1
2018-May-21 11:00N 29°43' W 094°56'0 0.0
2018-May-21 05:36N 29°43' W 094°56'0 0.0
2018-May-21 05:28N 29°43' W 094°56'0 0.0
2018-May-21 04:58N 29°43' W 094°56'0 0.0
2018-May-21 04:30N 29°43' W 094°56'0 0.0
2018-May-21 04:00N 29°43' W 094°56'0 0.0
2018-May-21 03:29N 29°43' W 094°56'0 0.0
2018-May-21 02:55N 29°43' W 094°56'0 0.0
2018-May-21 02:30N 29°43' W 094°56'0 0.0
2018-May-21 01:57N 29°43' W 094°56'0 0.0
2018-May-21 00:36N 29°43' W 094°56'0 0.0
2018-May-21 00:21N 29°43' W 094°56'0 0.0
2018-May-20 21:01N 29°43' W 094°56'0 0.0
2018-May-20 20:43N 29°43' W 094°56'0 0.0
2018-May-20 20:14N 29°43' W 094°56'0 0.0
2018-May-20 20:00N 29°43' W 094°56'0 0.0
2018-May-20 19:20N 29°43' W 094°56'0 0.0
2018-May-20 18:58N 29°43' W 094°56'0 0.0
2018-May-20 18:25N 29°43' W 094°56'0 0.0
2018-May-20 17:59N 29°43' W 094°56'0 0.0
2018-May-20 17:26N 29°43' W 094°56'0 0.0
2018-May-20 17:00N 29°43' W 094°56'0 0.0
2018-May-20 16:30N 29°43' W 094°56'0 0.0
2018-May-20 16:00N 29°43' W 094°56'0 0.0
2018-May-20 15:30N 29°43' W 094°56'0 0.0
2018-May-20 14:54N 29°43' W 094°56'0 0.0
2018-May-20 14:30N 29°43' W 094°56'0 0.0
2018-May-20 14:00N 29°43' W 094°56'0 0.0
2018-May-20 13:27N 29°43' W 094°56'0 0.0
2018-May-20 11:13N 29°43' W 094°56'0 0.0
2018-May-20 10:59N 29°43' W 094°56'0 0.0
2018-May-20 09:39N 29°43' W 094°56'0 0.0
2018-May-20 09:25N 29°43' W 094°56'0 0.0
2018-May-20 08:55N 29°43' W 094°56'0 0.0
2018-May-20 08:09N 29°43' W 094°56'0 0.0
2018-May-20 07:02N 29°43' W 094°56'0 0.0
2018-May-20 07:00N 29°43' W 094°56'0 0.0
2018-May-20 06:27N 29°43' W 094°56'0 0.0
2018-May-20 05:59N 29°43' W 094°56'0 0.0
2018-May-20 05:29N 29°43' W 094°56'0 0.0
2018-May-20 05:00N 29°43' W 094°56'0 0.0
2018-May-20 04:30N 29°43' W 094°56'0 0.5
2018-May-20 03:55N 29°43' W 094°56'0 0.0
2018-May-18 11:44N 29°43' W 094°56'0 0.0
2018-May-18 11:28N 29°43' W 094°56'0 0.0
2018-May-18 11:00N 29°43' W 094°56'0 0.0
2018-May-18 10:30N 29°43' W 094°56'0 0.0
2018-May-18 10:00N 29°43' W 094°56'0 0.0
2018-May-18 09:30N 29°43' W 094°56'0 0.0
2018-May-18 09:00N 29°43' W 094°56'0 0.0
2018-May-18 08:30N 29°43' W 094°56'0 0.0
2018-May-18 08:00N 29°43' W 094°56'0 0.0
2018-May-18 07:30N 29°43' W 094°56'0 0.0
2018-May-18 07:00N 29°43' W 094°56'0 0.0
2018-May-18 06:30N 29°43' W 094°56'0 0.0
2018-May-18 06:00N 29°43' W 094°56'0 0.0
2018-May-18 05:30N 29°43' W 094°56'0 0.0
2018-May-18 05:00N 29°43' W 094°56'0 0.0
2018-May-18 04:30N 29°43' W 094°56'0 0.0
2018-May-18 04:00N 29°43' W 094°56'0 0.0
2018-May-18 03:29N 29°43' W 094°56'0 0.0
2018-May-18 03:00N 29°43' W 094°56'0 0.0
2018-May-18 02:29N 29°43' W 094°56'0 0.0
2018-May-18 02:00N 29°43' W 094°56'0 0.0
2018-May-18 00:55N 29°43' W 094°56'0 0.3
2018-May-17 23:45N 29°43' W 094°57'1 2.5
2018-May-17 23:28N 29°43' W 094°56'1 1.6
2018-May-17 23:00N 29°42' W 094°56'1 1.3
2018-May-17 22:30N 29°42' W 094°55'0 0.0
2018-May-17 22:00N 29°42' W 094°55'0 0.0
2018-May-17 21:30N 29°42' W 094°55'0 0.1
2018-May-17 21:00N 29°42' W 094°55'0 0.0
2018-May-17 18:48N 29°42' W 094°55'0 0.1
2018-May-17 18:30N 29°42' W 094°55'0 0.0
2018-May-17 17:53N 29°42' W 094°55'0 0.0
2018-May-17 17:27N 29°42' W 094°55'0 0.0
2018-May-17 17:00N 29°42' W 094°55'0 0.0
2018-May-17 16:29N 29°42' W 094°55'0 0.1
2018-May-17 15:58N 29°42' W 094°55'0 0.0
2018-May-17 15:11N 29°42' W 094°55'0 0.0
2018-May-17 14:52N 29°42' W 094°55'0 0.0
2018-May-17 14:30N 29°42' W 094°55'0 0.2
2018-May-17 14:00N 29°42' W 094°55'1 1.9
2018-May-17 13:30N 29°42' W 094°56'1 2.2
2018-May-17 12:59N 29°43' W 094°56'1 1.7
2018-May-17 12:30N 29°43' W 094°56'1 2.4
2018-May-17 11:59N 29°42' W 094°55'0 0.0
2018-May-17 10:36N 29°42' W 094°55'0 0.0
2018-May-17 10:14N 29°42' W 094°55'0 0.0
2018-May-17 09:52N 29°42' W 094°55'0 0.0
2018-May-17 09:23N 29°42' W 094°55'  
Track history (hours):
 
Tides and Currents Weather Stations Pressure Air Temp Water Temp Dewpoint Dewpoint Depression Visibility Wind Speed Wind Dir Waves Ship Positions

Caleb J. Eymard

Owner: Eymard Brothers Towing Company, Inc., Marrero, LA. More information available from US FCC via Universal Licensing System and Coast Guard Vessel Documentation Center.

Last reported at 2018-May-27 09:19 UTC. Time now 2018-May-27 11:36 UTC.
Position N 29°43' W 095°14'.

; draft 3 m.

Type: Tug. MMSI: 367082880.

Date/timePositionNaut miles runAvg speedWind from/ knotsBaromVisibWave heightAir tempDewpointWater temp
2018-May-27 09:19N 29°43' W 095°14'0 0.0
2018-May-27 08:43N 29°43' W 095°14'0 0.0
2018-May-27 07:48N 29°43' W 095°14'0 0.0
2018-May-27 05:18N 29°43' W 095°14'0 0.0
2018-May-27 04:39N 29°43' W 095°14'0 0.0
2018-May-27 04:20N 29°43' W 095°14'0 0.0
2018-May-27 04:00N 29°43' W 095°14'0 0.0
2018-May-27 03:30N 29°43' W 095°14'0 0.0
2018-May-27 03:00N 29°43' W 095°14'2 3.6
2018-May-27 02:28N 29°44' W 095°12'3 5.6
2018-May-27 02:00N 29°44' W 095°09'3 6.0
2018-May-27 01:28N 29°45' W 095°06'3 4.5
2018-May-27 00:54N 29°44' W 095°09'5 6.2
2018-May-27 00:05N 29°43' W 095°14'0 0.4
2018-May-26 23:59N 29°43' W 095°14'2 3.1
2018-May-26 23:20N 29°44' W 095°12'2 5.7
2018-May-26 23:00N 29°45' W 095°10'3 5.5
2018-May-26 22:29N 29°44' W 095°07'3 4.7
2018-May-26 21:55N 29°45' W 095°04'3 5.0
2018-May-26 21:14N 29°43' W 095°01'1 3.3
2018-May-26 21:00N 29°42' W 095°01'2 4.7
2018-May-26 20:30N 29°41' W 094°58'2 4.6
2018-May-26 19:59N 29°41' W 094°56'1 2.3
2018-May-26 19:30N 29°42' W 094°55'0 0.8
2018-May-26 18:59N 29°42' W 094°55'1 0.4
2018-May-26 16:40N 29°43' W 094°56'0 0.1
2018-May-26 16:30N 29°43' W 094°56'0 0.3
2018-May-26 16:00N 29°43' W 094°56'0 0.2
2018-May-26 15:27N 29°43' W 094°56'0 0.1
2018-May-26 14:58N 29°43' W 094°56'0 0.0
2018-May-26 14:30N 29°43' W 094°56'0 0.0
2018-May-26 01:35N 29°43' W 094°56'0 0.0
2018-May-26 01:13N 29°43' W 094°56'0 0.3
2018-May-26 00:57N 29°43' W 094°56'1 1.6
2018-May-26 00:30N 29°43' W 094°57'0 0.1
2018-May-25 21:51N 29°43' W 094°56'0 1.3
2018-May-25 21:29N 29°43' W 094°56'1 1.4
2018-May-25 20:53N 29°42' W 094°55'1 2.5
2018-May-25 20:30N 29°41' W 094°55'1 2.8
2018-May-25 20:00N 29°41' W 094°57'2 3.9
2018-May-25 19:30N 29°41' W 094°59'1 1.0
2018-May-25 19:00N 29°41' W 094°60'0 0.0
2018-May-25 18:30N 29°41' W 094°60'0 0.0
2018-May-25 18:00N 29°41' W 094°60'0 0.0
2018-May-25 17:30N 29°41' W 094°60'0 0.0
2018-May-25 17:00N 29°41' W 094°60'0 0.0
2018-May-25 16:30N 29°41' W 094°60'0 0.0
2018-May-25 16:00N 29°41' W 094°60'0 0.0
2018-May-25 15:30N 29°41' W 094°60'0 0.0
2018-May-25 15:00N 29°41' W 094°60'0 0.0
2018-May-25 14:30N 29°41' W 094°60'0 0.0
2018-May-25 14:00N 29°41' W 094°60'0 0.0
2018-May-25 13:28N 29°41' W 094°60'0 0.0
2018-May-25 12:59N 29°41' W 094°60'0 0.0
2018-May-25 12:30N 29°41' W 094°60'0 0.0
2018-May-25 12:00N 29°41' W 094°60'0 0.1
2018-May-25 11:30N 29°41' W 094°60'0 0.0
2018-May-25 11:00N 29°41' W 094°60'0 0.0
2018-May-25 10:30N 29°41' W 094°60'0 0.0
2018-May-25 10:00N 29°41' W 094°60'0 0.0
2018-May-25 09:30N 29°41' W 094°60'0 0.0
2018-May-25 09:00N 29°41' W 094°60'0 0.0
2018-May-25 08:29N 29°41' W 094°60'0 0.0
2018-May-25 08:00N 29°41' W 094°60'0 0.0
2018-May-25 07:30N 29°41' W 094°60'0 0.0
2018-May-25 07:00N 29°41' W 094°60'0 0.0
2018-May-25 06:30N 29°41' W 094°60'0 0.0
2018-May-25 06:00N 29°41' W 094°60'0 0.0
2018-May-25 05:30N 29°41' W 094°60'0 0.0
2018-May-25 05:00N 29°41' W 094°60'0 0.0
2018-May-25 04:30N 29°41' W 094°60'0 0.0
2018-May-25 04:00N 29°41' W 094°60'0 0.2
2018-May-25 03:30N 29°41' W 094°60'2 3.2
2018-May-25 03:00N 29°41' W 094°58'2 3.5
2018-May-25 02:28N 29°40' W 094°56'1 0.7
2018-May-25 00:26N 29°42' W 094°55'0 0.0
2018-May-24 21:33N 29°42' W 094°55'0 0.9
2018-May-24 21:28N 29°42' W 094°55'1 1.2
2018-May-24 20:59N 29°42' W 094°56'1 1.4
2018-May-24 20:30N 29°43' W 094°56'1 1.0
2018-May-24 19:52N 29°43' W 094°57'1 1.8
2018-May-24 19:29N 29°43' W 094°56'0 0.1
2018-May-24 19:00N 29°43' W 094°56'0 0.0
2018-May-24 18:24N 29°43' W 094°56'0 0.0
2018-May-24 18:00N 29°43' W 094°56'0 0.0
2018-May-24 17:26N 29°43' W 094°56'0 0.0
2018-May-24 16:58N 29°43' W 094°56'0 0.0
2018-May-24 16:30N 29°43' W 094°56'0 0.0
2018-May-24 15:59N 29°43' W 094°56'0 0.0
2018-May-24 15:29N 29°43' W 094°56'0 0.4
2018-May-24 15:00N 29°43' W 094°56'0 0.3
2018-May-24 14:30N 29°43' W 094°56'0 0.3
2018-May-24 13:57N 29°43' W 094°56'0 0.0
2018-May-24 08:57N 29°43' W 094°56'0 0.0
2018-May-24 08:27N 29°43' W 094°56'0 0.0
2018-May-24 07:44N 29°43' W 094°56'0 0.0
2018-May-24 07:17N 29°43' W 094°56'0 0.0
2018-May-24 07:00N 29°43' W 094°56'0 0.0
2018-May-24 06:30N 29°43' W 094°56'0 0.0
2018-May-24 05:57N 29°43' W 094°56'0 0.0
2018-May-24 05:26N 29°43' W 094°56'0 0.0
2018-May-24 04:55N 29°43' W 094°56'0 0.0
2018-May-24 04:11N 29°43' W 094°56'0 0.0
2018-May-24 03:59N 29°43' W 094°56'0 0.0
2018-May-24 03:29N 29°43' W 094°56'0 0.0
2018-May-24 02:50N 29°43' W 094°56'0 0.0
2018-May-24 02:26N 29°43' W 094°56'0 0.0
2018-May-24 02:00N 29°43' W 094°56'0 0.0
2018-May-24 01:30N 29°43' W 094°56'0 0.0
2018-May-24 00:59N 29°43' W 094°56'0 0.0
2018-May-24 00:30N 29°43' W 094°56'0 0.0
2018-May-23 23:52N 29°43' W 094°56'0 0.0
2018-May-23 23:28N 29°43' W 094°56'0 0.0
2018-May-23 22:58N 29°43' W 094°56'0 0.0
2018-May-23 22:30N 29°43' W 094°56'0 0.0
2018-May-23 21:50N 29°43' W 094°56'0 0.0
2018-May-23 21:26N 29°43' W 094°56'0 0.0
2018-May-23 21:00N 29°43' W 094°56'0 0.0
2018-May-23 20:29N 29°43' W 094°56'0 0.0
2018-May-23 20:00N 29°43' W 094°56'0 0.0
2018-May-23 19:30N 29°43' W 094°56'0 0.0
2018-May-23 18:59N 29°43' W 094°56'0 0.0
2018-May-23 18:30N 29°43' W 094°56'0 0.0
2018-May-23 18:00N 29°43' W 094°56'0 0.0
2018-May-23 17:30N 29°43' W 094°56'0 0.0
2018-May-23 16:57N 29°43' W 094°56'0 0.0
2018-May-23 16:28N 29°43' W 094°56'0 0.1
2018-May-23 15:47N 29°43' W 094°56'0 0.4
2018-May-23 15:30N 29°43' W 094°56'0 0.0
2018-May-23 14:59N 29°43' W 094°56'0 0.0
2018-May-23 14:30N 29°43' W 094°56'0 0.1
2018-May-23 13:59N 29°43' W 094°56'0 0.0
2018-May-23 13:30N 29°43' W 094°56'0 0.0
2018-May-23 13:00N 29°43' W 094°56'0 0.0
2018-May-23 12:30N 29°43' W 094°56'0 0.0
2018-May-23 12:00N 29°43' W 094°56'0 0.0
2018-May-23 11:30N 29°43' W 094°56'0 0.0
2018-May-23 10:56N 29°43' W 094°56'0 0.0
2018-May-23 10:30N 29°43' W 094°56'0 0.0
2018-May-23 10:00N 29°43' W 094°56'0 0.0
2018-May-23 09:30N 29°43' W 094°56'0 0.0
2018-May-23 09:00N 29°43' W 094°56'0 0.0
2018-May-23 08:28N 29°43' W 094°56'0 0.0
2018-May-23 08:00N 29°43' W 094°56'0 0.0
2018-May-23 07:30N 29°43' W 094°56'0 0.0
2018-May-23 06:56N 29°43' W 094°56'0 0.0
2018-May-23 06:28N 29°43' W 094°56'0 0.0
2018-May-23 06:00N 29°43' W 094°56'0 0.0
2018-May-23 05:28N 29°43' W 094°56'0 0.0
2018-May-23 04:57N 29°43' W 094°56'0 0.0
2018-May-23 04:19N 29°43' W 094°56'1 0.8
2018-May-23 03:27N 29°43' W 094°57'1 1.2
2018-May-23 02:54N 29°43' W 094°56'0 0.0
2018-May-23 02:29N 29°43' W 094°56'0 0.0
2018-May-23 01:57N 29°43' W 094°56'1 0.3
2018-May-22 23:27N 29°43' W 094°57'1 1.6
2018-May-22 22:58N 29°43' W 094°56'1 1.7
2018-May-22 22:27N 29°42' W 094°55'1 2.5
2018-May-22 22:00N 29°41' W 094°56'1 2.8
2018-May-22 21:30N 29°41' W 094°57'1 3.0
2018-May-22 21:00N 29°41' W 094°59'3 5.4
2018-May-22 20:30N 29°38' W 094°58'2 3.5
2018-May-22 20:00N 29°37' W 094°59'1 2.1
2018-May-22 19:30N 29°37' W 094°60'0 0.1
2018-May-22 19:00N 29°37' W 094°60'0 0.0
2018-May-22 18:30N 29°37' W 094°60'0 0.0
2018-May-22 18:00N 29°37' W 094°60'0 0.0
2018-May-22 17:30N 29°37' W 094°60'0 0.0
2018-May-22 17:00N 29°37' W 094°60'0 0.0
2018-May-22 16:30N 29°37' W 094°60'0 0.0
2018-May-22 16:00N 29°37' W 094°60'0 0.0
2018-May-22 15:30N 29°37' W 094°60'0 0.0
2018-May-22 15:00N 29°37' W 094°60'0 0.0
2018-May-22 14:30N 29°37' W 094°60'0 0.0
2018-May-22 14:00N 29°37' W 094°60'0 0.0
2018-May-22 13:30N 29°37' W 094°60'0 0.0
2018-May-22 13:00N 29°37' W 094°60'0 0.0
2018-May-22 12:30N 29°37' W 094°60'0 0.0
2018-May-22 12:00N 29°37' W 094°60'0 0.0
2018-May-22 11:30N 29°37' W 094°60'0 0.0
2018-May-22 11:00N 29°37' W 094°60'0 0.0
2018-May-22 10:30N 29°37' W 094°60'0 0.0
2018-May-22 10:00N 29°37' W 094°60'0 0.0
2018-May-22 09:30N 29°37' W 094°60'0 0.0
2018-May-22 09:00N 29°37' W 094°60'0 0.0
2018-May-22 08:30N 29°37' W 094°60'0 0.0
2018-May-22 08:00N 29°37' W 094°60'0 0.0
2018-May-22 07:30N 29°37' W 094°60'0 0.0
2018-May-22 07:00N 29°37' W 094°60'0 0.0
2018-May-22 06:30N 29°37' W 094°60'0 0.0
2018-May-22 06:00N 29°37' W 094°60'0 0.0
2018-May-22 05:30N 29°37' W 094°60'0 0.0
2018-May-22 05:00N 29°37' W 094°60'0 0.0
2018-May-22 04:30N 29°37' W 094°60'0 0.0
2018-May-22 04:00N 29°37' W 094°60'0 0.0
2018-May-22 03:30N 29°37' W 094°60'0 0.0
2018-May-22 03:00N 29°37' W 094°60'0 0.0
2018-May-22 02:30N 29°37' W 094°60'0 0.0
2018-May-22 02:00N 29°37' W 094°60'0 0.0
2018-May-22 01:30N 29°37' W 094°60'0 0.0
2018-May-22 01:00N 29°37' W 094°60'1 2.2
2018-May-22 00:30N 29°37' W 094°59'2 3.6
2018-May-22 00:00N 29°39' W 094°58'3 5.3
2018-May-21 23:30N 29°41' W 094°59'2 4.1
2018-May-21 23:00N 29°41' W 094°56'2 3.1
2018-May-21 22:29N 29°42' W 094°55'1 1.2
2018-May-21 21:57N 29°42' W 094°56'1 1.7
2018-May-21 21:30N 29°43' W 094°56'1 0.2
2018-May-21 17:25N 29°43' W 094°57'1 1.0
2018-May-21 16:41N 29°43' W 094°56'0 0.0
2018-May-21 16:26N 29°43' W 094°56'0 0.1
2018-May-21 16:00N 29°43' W 094°56'0 0.0
2018-May-21 15:30N 29°43' W 094°56'0 0.0
2018-May-21 14:58N 29°43' W 094°56'0 0.0
2018-May-21 14:30N 29°43' W 094°56'1 1.6
2018-May-21 13:54N 29°42' W 094°55'0 0.8
2018-May-21 13:29N 29°42' W 094°55'1 2.7
2018-May-21 13:00N 29°43' W 094°56'0 0.0
2018-May-21 12:26N 29°43' W 094°56'0 0.0
2018-May-21 12:00N 29°43' W 094°56'0 0.0
2018-May-21 11:30N 29°43' W 094°56'0 0.1
2018-May-21 11:00N 29°43' W 094°56'0 0.0
2018-May-21 05:36N 29°43' W 094°56'0 0.0
2018-May-21 05:28N 29°43' W 094°56'0 0.0
2018-May-21 04:58N 29°43' W 094°56'0 0.0
2018-May-21 04:30N 29°43' W 094°56'0 0.0
2018-May-21 04:00N 29°43' W 094°56'0 0.0
2018-May-21 03:29N 29°43' W 094°56'0 0.0
2018-May-21 02:55N 29°43' W 094°56'0 0.0
2018-May-21 02:30N 29°43' W 094°56'0 0.0
2018-May-21 01:57N 29°43' W 094°56'0 0.0
2018-May-21 00:36N 29°43' W 094°56'0 0.0
2018-May-21 00:21N 29°43' W 094°56'0 0.0
2018-May-20 21:01N 29°43' W 094°56'0 0.0
2018-May-20 20:43N 29°43' W 094°56'0 0.0
2018-May-20 20:14N 29°43' W 094°56'0 0.0
2018-May-20 20:00N 29°43' W 094°56'0 0.0
2018-May-20 19:20N 29°43' W 094°56'0 0.0
2018-May-20 18:58N 29°43' W 094°56'0 0.0
2018-May-20 18:25N 29°43' W 094°56'0 0.0
2018-May-20 17:59N 29°43' W 094°56'0 0.0
2018-May-20 17:26N 29°43' W 094°56'0 0.0
2018-May-20 17:00N 29°43' W 094°56'0 0.0
2018-May-20 16:30N 29°43' W 094°56'0 0.0
2018-May-20 16:00N 29°43' W 094°56'0 0.0
2018-May-20 15:30N 29°43' W 094°56'0 0.0
2018-May-20 14:54N 29°43' W 094°56'0 0.0
2018-May-20 14:30N 29°43' W 094°56'0 0.0
2018-May-20 14:00N 29°43' W 094°56'0 0.0
2018-May-20 13:27N 29°43' W 094°56'0 0.0
2018-May-20 11:13N 29°43' W 094°56'0 0.0
2018-May-20 10:59N 29°43' W 094°56'0 0.0
2018-May-20 09:39N 29°43' W 094°56'0 0.0
2018-May-20 09:25N 29°43' W 094°56'0 0.0
2018-May-20 08:55N 29°43' W 094°56'0 0.0
2018-May-20 08:09N 29°43' W 094°56'0 0.0
2018-May-20 07:02N 29°43' W 094°56'0 0.0
2018-May-20 07:00N 29°43' W 094°56'0 0.0
2018-May-20 06:27N 29°43' W 094°56'0 0.0
2018-May-20 05:59N 29°43' W 094°56'0 0.0
2018-May-20 05:29N 29°43' W 094°56'0 0.0
2018-May-20 05:00N 29°43' W 094°56'0 0.0
2018-May-20 04:30N 29°43' W 094°56'0 0.5
2018-May-20 03:55N 29°43' W 094°56'0 0.0
2018-May-18 11:44N 29°43' W 094°56'0 0.0
2018-May-18 11:28N 29°43' W 094°56'0 0.0
2018-May-18 11:00N 29°43' W 094°56'0 0.0
2018-May-18 10:30N 29°43' W 094°56'0 0.0
2018-May-18 10:00N 29°43' W 094°56'0 0.0
2018-May-18 09:30N 29°43' W 094°56'0 0.0
2018-May-18 09:00N 29°43' W 094°56'0 0.0
2018-May-18 08:30N 29°43' W 094°56'0 0.0
2018-May-18 08:00N 29°43' W 094°56'0 0.0
2018-May-18 07:30N 29°43' W 094°56'0 0.0
2018-May-18 07:00N 29°43' W 094°56'0 0.0
2018-May-18 06:30N 29°43' W 094°56'0 0.0
2018-May-18 06:00N 29°43' W 094°56'0 0.0
2018-May-18 05:30N 29°43' W 094°56'0 0.0
2018-May-18 05:00N 29°43' W 094°56'0 0.0
2018-May-18 04:30N 29°43' W 094°56'0 0.0
2018-May-18 04:00N 29°43' W 094°56'0 0.0
2018-May-18 03:29N 29°43' W 094°56'0 0.0
2018-May-18 03:00N 29°43' W 094°56'0 0.0
2018-May-18 02:29N 29°43' W 094°56'0 0.0
2018-May-18 02:00N 29°43' W 094°56'0 0.0
2018-May-18 00:55N 29°43' W 094°56'0 0.3
2018-May-17 23:45N 29°43' W 094°57'1 2.5
2018-May-17 23:28N 29°43' W 094°56'1 1.6
2018-May-17 23:00N 29°42' W 094°56'1 1.3
2018-May-17 22:30N 29°42' W 094°55'0 0.0
2018-May-17 22:00N 29°42' W 094°55'0 0.0
2018-May-17 21:30N 29°42' W 094°55'0 0.1
2018-May-17 21:00N 29°42' W 094°55'0 0.0
2018-May-17 18:48N 29°42' W 094°55'0 0.1
2018-May-17 18:30N 29°42' W 094°55'0 0.0
2018-May-17 17:53N 29°42' W 094°55'0 0.0
2018-May-17 17:27N 29°42' W 094°55'0 0.0
2018-May-17 17:00N 29°42' W 094°55'0 0.0
2018-May-17 16:29N 29°42' W 094°55'0 0.1
2018-May-17 15:58N 29°42' W 094°55'0 0.0
2018-May-17 15:11N 29°42' W 094°55'0 0.0
2018-May-17 14:52N 29°42' W 094°55'0 0.0
2018-May-17 14:30N 29°42' W 094°55'0 0.2
2018-May-17 14:00N 29°42' W 094°55'1 1.9
2018-May-17 13:30N 29°42' W 094°56'1 2.2
2018-May-17 12:59N 29°43' W 094°56'1 1.7
2018-May-17 12:30N 29°43' W 094°56'1 2.4
2018-May-17 11:59N 29°42' W 094°55'0 0.0
2018-May-17 10:36N 29°42' W 094°55'0 0.0
2018-May-17 10:14N 29°42' W 094°55'0 0.0
2018-May-17 09:52N 29°42' W 094°55'0 0.0
2018-May-17 09:23N 29°42' W 094°55'  

Dump ship's entire track history